createdAt,value
2022-10-22T00:00:53.403Z,4.10
2022-10-22T00:03:26.274Z,3.70
2022-10-22T00:05:59.246Z,3.85
2022-10-22T00:08:35.537Z,3.97
2022-10-22T00:11:14.598Z,3.90
2022-10-22T00:16:35.823Z,4.95
2022-10-22T00:19:15.669Z,4.80
2022-10-22T00:21:45.741Z,4.35
2022-10-22T00:24:15.965Z,4.30
2022-10-22T00:26:51.372Z,4.18
2022-10-22T00:29:21.536Z,4.60
2022-10-22T00:31:52.450Z,4.78
2022-10-22T00:34:27.456Z,5.10
2022-10-22T00:36:58.912Z,5.28
2022-10-22T00:39:32.867Z,4.40
2022-10-22T00:42:03.224Z,4.40
2022-10-22T00:45:11.037Z,3.95
2022-10-22T00:47:46.281Z,4.85
2022-10-22T00:50:24.960Z,4.50
2022-10-22T00:53:00.276Z,4.47
2022-10-22T00:55:34.775Z,5.03
2022-10-22T01:01:01.410Z,4.72
2022-10-22T01:03:34.402Z,4.00
2022-10-22T01:06:10.272Z,4.28
2022-10-22T01:08:52.749Z,4.25
2022-10-22T01:11:35.157Z,4.30
2022-10-22T01:14:19.302Z,4.38
2022-10-22T01:17:01.435Z,4.72
2022-10-22T01:20:01.370Z,3.97
2022-10-22T01:22:51.296Z,4.55
2022-10-22T01:25:37.367Z,4.22
2022-10-22T01:28:26.556Z,4.15
2022-10-22T01:31:06.823Z,4.80
2022-10-22T01:33:45.599Z,5.05
2022-10-22T01:36:17.115Z,4.90
2022-10-22T01:38:52.662Z,4.40
2022-10-22T01:41:25.184Z,4.55
2022-10-22T01:43:55.324Z,4.70
2022-10-22T01:46:31.066Z,4.18
2022-10-22T01:49:20.148Z,4.20
2022-10-22T01:52:08.365Z,4.15
2022-10-22T01:54:54.867Z,4.32
2022-10-22T01:57:38.340Z,3.80
2022-10-22T02:00:13.550Z,4.63
2022-10-22T02:02:58.412Z,4.93
2022-10-22T02:05:42.138Z,3.97
2022-10-22T02:08:20.935Z,4.13
2022-10-22T02:10:53.462Z,4.25
2022-10-22T02:13:31.757Z,4.47
2022-10-22T02:16:04.345Z,4.40
2022-10-22T02:18:47.910Z,4.80
2022-10-22T02:21:19.094Z,4.53
2022-10-22T02:23:54.122Z,4.80
2022-10-22T02:26:41.930Z,4.40
2022-10-22T02:29:23.996Z,4.15
2022-10-22T02:31:58.455Z,5.00
2022-10-22T02:34:34.926Z,4.40
2022-10-22T02:37:06.290Z,4.10
2022-10-22T02:39:38.870Z,3.95
2022-10-22T02:42:09.291Z,4.72
2022-10-22T02:44:41.722Z,4.68
2022-10-22T02:47:14.882Z,3.97
2022-10-22T02:49:47.638Z,4.53
2022-10-22T02:52:17.851Z,4.78
2022-10-22T02:54:59.343Z,3.65
2022-10-22T02:57:29.479Z,5.38
2022-10-22T03:00:06.445Z,4.30
2022-10-22T03:02:39.638Z,4.22
2022-10-22T03:05:12.967Z,4.78
2022-10-22T03:07:45.529Z,4.57
2022-10-22T03:10:18.858Z,5.57
2022-10-22T03:12:48.911Z,5.60
2022-10-22T03:18:20.081Z,4.80
2022-10-22T03:20:52.899Z,4.45
2022-10-22T03:23:23.275Z,4.63
2022-10-22T03:25:53.520Z,4.93
2022-10-22T03:28:23.991Z,5.22
2022-10-22T03:30:57.075Z,5.22
2022-10-22T03:33:29.300Z,5.47
2022-10-22T03:36:03.501Z,6.03
2022-10-22T03:38:34.143Z,5.80
2022-10-22T03:41:11.566Z,6.05
2022-10-22T03:43:42.397Z,5.85
2022-10-22T03:46:29.986Z,5.75
2022-10-22T03:49:00.098Z,6.25
2022-10-22T03:51:41.880Z,5.78
2022-10-22T03:54:11.991Z,6.38
2022-10-22T03:56:42.142Z,6.10
2022-10-22T03:59:15.173Z,5.75
2022-10-22T04:01:50.403Z,5.80
2022-10-22T04:04:20.521Z,5.65
2022-10-22T04:06:53.202Z,5.72
2022-10-22T04:09:26.382Z,5.78
2022-10-22T04:12:02.027Z,5.85
2022-10-22T04:14:35.075Z,6.43
2022-10-22T04:17:05.284Z,6.15
2022-10-22T04:19:35.820Z,19.75
2022-10-22T04:22:10.800Z,8.93
2022-10-22T04:24:41.299Z,6.32
2022-10-22T04:27:11.416Z,6.53
2022-10-22T04:29:50.048Z,6.18
2022-10-22T04:32:23.139Z,6.35
2022-10-22T04:34:53.230Z,5.68
2022-10-22T04:37:28.023Z,6.70
2022-10-22T04:39:58.443Z,6.57
2022-10-22T04:42:28.704Z,6.68
2022-10-22T04:44:58.841Z,6.07
2022-10-22T04:47:37.910Z,7.03
2022-10-22T04:50:09.895Z,5.80
2022-10-22T04:52:45.296Z,5.97
2022-10-22T04:55:17.883Z,6.05
2022-10-22T04:57:48.140Z,5.22
2022-10-22T05:00:21.440Z,6.45
2022-10-22T05:02:53.474Z,6.47
2022-10-22T05:05:23.548Z,5.60
2022-10-22T05:07:56.935Z,5.88
2022-10-22T05:10:26.997Z,5.63
2022-10-22T05:12:57.004Z,5.90
2022-10-22T05:15:27.106Z,5.18
2022-10-22T05:17:57.157Z,5.00
2022-10-22T05:20:35.411Z,4.82
2022-10-22T05:23:15.354Z,4.75
2022-10-22T05:25:45.478Z,4.43
2022-10-22T05:28:15.774Z,4.93
2022-10-22T05:30:55.138Z,4.15
2022-10-22T05:33:25.518Z,4.43
2022-10-22T05:35:57.095Z,4.30
2022-10-22T05:38:30.373Z,4.20
2022-10-22T05:41:04.852Z,4.43
2022-10-22T05:43:35.875Z,4.22
2022-10-22T05:46:09.797Z,4.28
2022-10-22T05:48:40.746Z,5.05
2022-10-22T05:51:14.201Z,4.80
2022-10-22T05:53:48.600Z,5.03
2022-10-22T05:56:19.691Z,4.60
2022-10-22T05:58:50.235Z,4.85
2022-10-22T06:01:23.657Z,4.80
2022-10-22T06:03:57.949Z,5.35
2022-10-22T06:06:34.413Z,5.82
2022-10-22T06:09:13.571Z,5.50
2022-10-22T06:11:45.129Z,5.18
2022-10-22T06:14:15.625Z,5.82
2022-10-22T06:16:46.125Z,5.22
2022-10-22T06:19:19.307Z,6.25
2022-10-22T06:21:50.799Z,5.90
2022-10-22T06:24:23.701Z,5.28
2022-10-22T06:26:54.592Z,5.22
2022-10-22T06:29:25.298Z,4.97
2022-10-22T06:31:55.592Z,4.60
2022-10-22T06:34:25.954Z,4.78
2022-10-22T06:36:56.295Z,4.25
2022-10-22T06:39:29.367Z,4.25
2022-10-22T06:41:59.627Z,4.43
2022-10-22T06:44:30.052Z,4.20
2022-10-22T06:47:00.405Z,4.03
2022-10-22T06:49:30.715Z,3.88
2022-10-22T06:52:01.001Z,3.80
2022-10-22T06:54:33.946Z,3.95
2022-10-22T06:57:04.352Z,3.78
2022-10-22T06:59:34.937Z,3.80
2022-10-22T07:02:05.276Z,3.65
2022-10-22T07:04:35.625Z,3.38
2022-10-22T07:07:06.237Z,3.33
2022-10-22T07:09:39.493Z,3.60
2022-10-22T07:12:10.647Z,3.83
2022-10-22T07:14:41.275Z,3.80
2022-10-22T07:17:11.900Z,3.10
2022-10-22T07:19:42.312Z,3.25
2022-10-22T07:22:12.777Z,3.17
2022-10-22T07:24:45.772Z,3.70
2022-10-22T07:27:16.255Z,3.50
2022-10-22T07:29:46.511Z,2.80
2022-10-22T07:32:19.626Z,2.40
2022-10-22T07:34:52.028Z,1.95
2022-10-22T07:37:22.782Z,2.05
2022-10-22T07:39:55.726Z,2.03
2022-10-22T07:42:26.199Z,2.00
2022-10-22T07:44:56.556Z,1.70
2022-10-22T07:47:27.071Z,2.00
2022-10-22T07:49:57.370Z,1.70
2022-10-22T07:52:27.843Z,1.65
2022-10-22T07:55:00.812Z,1.80
2022-10-22T07:57:32.058Z,2.15
2022-10-22T08:00:02.447Z,2.33
2022-10-22T08:02:32.886Z,2.50
2022-10-22T08:05:03.274Z,2.00
2022-10-22T08:07:33.625Z,2.15
2022-10-22T08:10:07.814Z,2.00
2022-10-22T08:12:38.524Z,2.20
2022-10-22T08:15:11.629Z,1.90
2022-10-22T08:17:42.443Z,2.08
2022-10-22T08:20:14.313Z,1.98
2022-10-22T08:22:44.706Z,2.15
2022-10-22T08:25:18.512Z,1.88
2022-10-22T08:27:49.520Z,2.20
2022-10-22T08:30:20.457Z,1.95
2022-10-22T08:32:53.995Z,1.90
2022-10-22T08:35:24.655Z,2.10
2022-10-22T08:37:55.052Z,1.77
2022-10-22T08:40:34.993Z,1.98
2022-10-22T08:43:40.233Z,1.90
2022-10-22T08:46:35.672Z,2.15
2022-10-22T08:49:13.868Z,1.90
2022-10-22T08:51:44.339Z,2.60
2022-10-22T08:54:35.468Z,2.20
2022-10-22T08:57:36.295Z,2.08
2022-10-22T09:00:16.209Z,2.08
2022-10-22T09:03:09.519Z,2.10
2022-10-22T09:08:43.140Z,2.40
2022-10-22T09:11:29.041Z,2.15
2022-10-22T09:14:03.694Z,2.28
2022-10-22T09:16:41.453Z,2.22
2022-10-22T09:19:24.979Z,1.75
2022-10-22T09:22:09.028Z,1.55
2022-10-22T09:24:42.610Z,1.55
2022-10-22T09:27:19.818Z,1.50
2022-10-22T09:29:54.959Z,1.70
2022-10-22T09:32:25.944Z,2.00
2022-10-22T09:35:02.559Z,1.50
2022-10-22T09:37:33.281Z,1.63
2022-10-22T09:40:09.413Z,1.65
2022-10-22T09:42:43.795Z,1.50
2022-10-22T09:45:24.497Z,1.27
2022-10-22T09:48:12.580Z,1.67
2022-10-22T09:50:48.695Z,1.85
2022-10-22T09:53:26.801Z,1.50
2022-10-22T09:56:13.671Z,2.00
2022-10-22T09:58:50.330Z,1.52
2022-10-22T10:01:28.218Z,1.48
2022-10-22T10:04:09.835Z,1.65
2022-10-22T10:06:43.508Z,1.92
2022-10-22T10:09:21.846Z,1.10
2022-10-22T10:11:59.314Z,1.45
2022-10-22T10:14:44.102Z,1.50
2022-10-22T10:17:42.064Z,1.23
2022-10-22T10:20:32.640Z,1.17
2022-10-22T10:23:14.302Z,1.20
2022-10-22T10:25:58.269Z,1.52
2022-10-22T10:29:02.983Z,1.50
2022-10-22T10:31:47.232Z,1.40
2022-10-22T10:34:37.176Z,1.90
2022-10-22T10:37:29.016Z,1.35
2022-10-22T10:40:27.112Z,1.23
2022-10-22T10:43:03.482Z,1.83
2022-10-22T10:45:46.235Z,2.50
2022-10-22T10:48:37.839Z,1.80
2022-10-22T10:51:30.544Z,1.75
2022-10-22T10:54:31.015Z,1.83
2022-10-22T10:57:09.564Z,1.80
2022-10-22T11:00:03.103Z,2.25
2022-10-22T11:03:13.270Z,1.52
2022-10-22T11:05:48.548Z,1.80
2022-10-22T11:08:27.712Z,4.68
2022-10-22T11:11:06.426Z,2.17
2022-10-22T11:13:43.377Z,2.13
2022-10-22T11:16:23.981Z,2.22
2022-10-22T11:19:06.269Z,2.30
2022-10-22T11:21:44.697Z,1.90
2022-10-22T11:24:35.761Z,2.70
2022-10-22T11:27:14.283Z,2.25
2022-10-22T11:29:52.923Z,2.17
2022-10-22T11:32:26.541Z,1.90
2022-10-22T11:35:02.309Z,2.63
2022-10-22T11:37:40.650Z,2.20
2022-10-22T11:40:22.239Z,1.80
2022-10-22T11:42:57.208Z,2.13
2022-10-22T11:45:36.800Z,1.90
2022-10-22T11:48:22.156Z,1.52
2022-10-22T11:51:00.145Z,1.85
2022-10-22T11:53:35.865Z,1.90
2022-10-22T11:56:31.076Z,1.98
2022-10-22T11:59:03.399Z,1.85
2022-10-22T12:01:45.503Z,1.98
2022-10-22T12:04:25.292Z,2.00
2022-10-22T12:07:05.797Z,1.65
2022-10-22T12:09:36.088Z,1.17
2022-10-22T12:12:18.090Z,1.20
2022-10-22T12:14:57.803Z,1.50
2022-10-22T12:17:31.363Z,1.23
2022-10-22T12:20:18.991Z,0.98
2022-10-22T12:22:50.033Z,1.20
2022-10-22T12:25:35.677Z,0.98
2022-10-22T12:28:16.288Z,1.40
2022-10-22T12:30:46.432Z,1.20
2022-10-22T12:33:26.433Z,1.27
2022-10-22T12:36:04.149Z,1.30
2022-10-22T12:38:36.643Z,0.90
2022-10-22T12:41:12.118Z,1.02
2022-10-22T12:43:50.221Z,1.60
2022-10-22T12:46:22.612Z,1.23
2022-10-22T12:48:52.895Z,1.30
2022-10-22T12:51:25.890Z,1.10
2022-10-22T12:53:59.442Z,0.93
2022-10-22T12:56:38.086Z,1.30
2022-10-22T12:59:27.249Z,1.00
2022-10-22T13:02:01.267Z,1.08
2022-10-22T13:04:48.971Z,0.80
2022-10-22T13:07:22.593Z,5.95
2022-10-22T13:10:03.015Z,1.77
2022-10-22T13:12:40.226Z,1.70
2022-10-22T13:15:40.061Z,1.75
2022-10-22T13:18:23.790Z,1.70
2022-10-22T13:20:57.094Z,1.30
2022-10-22T13:23:30.700Z,1.00
2022-10-22T13:26:04.038Z,1.00
2022-10-22T13:28:37.418Z,1.02
2022-10-22T13:31:22.574Z,1.25
2022-10-22T13:34:01.389Z,1.33
2022-10-22T13:36:33.706Z,1.10
2022-10-22T13:39:06.421Z,1.45
2022-10-22T13:41:42.380Z,1.48
2022-10-22T13:44:12.488Z,1.02
2022-10-22T13:46:46.027Z,1.17
2022-10-22T13:49:19.416Z,1.20
2022-10-22T13:51:53.047Z,1.60
2022-10-22T13:54:26.516Z,1.25
2022-10-22T13:56:56.606Z,1.40
2022-10-22T13:59:26.752Z,1.48
2022-10-22T14:02:05.873Z,1.80
2022-10-22T14:04:46.386Z,1.45
2022-10-22T14:07:19.247Z,7.00
2022-10-22T14:09:49.405Z,1.27
2022-10-22T14:12:20.504Z,1.40
2022-10-22T14:14:53.708Z,1.50
2022-10-22T14:17:26.460Z,1.55
2022-10-22T14:19:59.186Z,1.40
2022-10-22T14:22:35.584Z,1.30
2022-10-22T14:25:14.464Z,1.23
2022-10-22T14:27:48.196Z,1.67
2022-10-22T14:30:23.772Z,1.50
2022-10-22T14:32:56.417Z,1.23
2022-10-22T14:35:29.359Z,1.30
2022-10-22T14:37:59.458Z,1.40
2022-10-22T14:40:29.529Z,1.70
2022-10-22T14:42:59.551Z,1.42
2022-10-22T14:45:36.854Z,1.75
2022-10-22T14:48:11.994Z,1.77
2022-10-22T14:50:42.075Z,1.55
2022-10-22T14:53:13.562Z,3.78
2022-10-22T14:55:55.514Z,1.92
2022-10-22T14:58:25.705Z,1.80
2022-10-22T15:00:55.834Z,1.35
2022-10-22T15:03:31.649Z,1.25
2022-10-22T15:06:08.892Z,1.50
2022-10-22T15:08:42.279Z,1.52
2022-10-22T15:11:15.993Z,1.50
2022-10-22T15:13:51.541Z,1.13
2022-10-22T15:16:21.844Z,1.40
2022-10-22T15:18:55.019Z,1.60
2022-10-22T15:21:26.462Z,2.30
2022-10-22T15:23:56.527Z,1.90
2022-10-22T15:26:27.899Z,2.70
2022-10-22T15:29:05.226Z,8.88
2022-10-22T15:31:51.376Z,3.10
2022-10-22T15:34:29.584Z,1.73
2022-10-22T15:37:04.967Z,5.65
2022-10-22T15:39:35.863Z,5.30
2022-10-22T15:42:09.368Z,6.97
2022-10-22T15:44:40.690Z,3.45
2022-10-22T15:47:11.600Z,2.00
2022-10-22T15:49:44.515Z,1.52
2022-10-22T15:52:14.674Z,1.40
2022-10-22T15:54:47.971Z,1.75
2022-10-22T15:57:18.131Z,1.70
2022-10-22T15:59:50.095Z,1.63
2022-10-22T16:02:22.779Z,1.67
2022-10-22T16:04:58.799Z,2.28
2022-10-22T16:07:33.733Z,3.17
2022-10-22T16:10:03.872Z,2.88
2022-10-22T16:12:35.972Z,2.35
2022-10-22T16:15:06.546Z,1.60
2022-10-22T16:17:39.700Z,1.85
2022-10-22T16:20:17.693Z,1.92
2022-10-22T16:22:50.457Z,1.83
2022-10-22T16:25:20.536Z,1.65
2022-10-22T16:27:53.430Z,1.95
2022-10-22T16:30:26.357Z,2.63
2022-10-22T16:32:56.423Z,1.52
2022-10-22T16:35:29.118Z,2.47
2022-10-22T16:37:59.480Z,2.85
2022-10-22T16:40:37.941Z,3.88
2022-10-22T16:43:08.175Z,3.92
2022-10-22T16:45:38.282Z,3.38
2022-10-22T16:48:08.778Z,4.10
2022-10-22T16:50:44.448Z,5.47
2022-10-22T16:53:19.960Z,5.57
2022-10-22T16:55:50.028Z,8.40
2022-10-22T16:58:20.173Z,8.23
2022-10-22T17:00:50.299Z,5.70
2022-10-22T17:03:22.557Z,6.03
2022-10-22T17:06:04.109Z,10.13
2022-10-22T17:08:34.987Z,9.95
2022-10-22T17:11:10.117Z,10.98
2022-10-22T17:13:48.695Z,13.82
2022-10-22T17:16:22.318Z,13.43
2022-10-22T17:18:52.528Z,12.02
2022-10-22T17:21:27.872Z,11.00
2022-10-22T17:24:01.478Z,9.57
2022-10-22T17:26:34.706Z,10.50
2022-10-22T17:29:04.936Z,11.02
2022-10-22T17:31:38.443Z,9.63
2022-10-22T17:34:11.432Z,9.43
2022-10-22T17:36:47.575Z,8.57
2022-10-22T17:39:20.974Z,9.05
2022-10-22T17:41:51.021Z,8.80
2022-10-22T17:44:22.509Z,8.82
2022-10-22T17:46:56.358Z,10.13
2022-10-22T17:49:26.552Z,8.77
2022-10-22T17:52:01.472Z,8.88
2022-10-22T17:54:35.804Z,9.32
2022-10-22T17:57:08.431Z,8.30
2022-10-22T17:59:46.736Z,7.63
2022-10-22T18:02:22.335Z,5.32
2022-10-22T18:04:57.755Z,5.82
2022-10-22T18:07:30.442Z,5.60
2022-10-22T18:10:05.280Z,5.20
2022-10-22T18:12:37.628Z,5.35
2022-10-22T18:15:09.129Z,4.45
2022-10-22T18:17:41.736Z,4.75
2022-10-22T18:20:14.381Z,3.90
2022-10-22T18:22:47.028Z,4.80
2022-10-22T18:25:17.460Z,6.43
2022-10-22T18:27:47.533Z,9.27
2022-10-22T18:30:20.621Z,7.80
2022-10-22T18:32:51.794Z,6.30
2022-10-22T18:35:21.840Z,5.28
2022-10-22T18:37:54.503Z,5.70
2022-10-22T18:40:24.580Z,4.53
2022-10-22T18:42:54.670Z,4.43
2022-10-22T18:45:27.710Z,4.57
2022-10-22T18:47:58.850Z,4.50
2022-10-22T18:50:29.037Z,4.45
2022-10-22T18:53:07.696Z,3.92
2022-10-22T18:55:41.393Z,3.50
2022-10-22T18:58:18.868Z,4.35
2022-10-22T19:00:49.316Z,3.70
2022-10-22T19:03:19.603Z,4.38
2022-10-22T19:05:54.243Z,3.42
2022-10-22T19:08:28.294Z,3.47
2022-10-22T19:11:01.274Z,3.65
2022-10-22T19:13:31.446Z,3.60
2022-10-22T19:16:06.523Z,3.45
2022-10-22T19:18:40.630Z,2.92
2022-10-22T19:21:15.203Z,3.88
2022-10-22T19:23:57.814Z,3.33
2022-10-22T19:26:31.180Z,2.97
2022-10-22T19:29:11.272Z,3.03
2022-10-22T19:31:42.234Z,3.20
2022-10-22T19:34:13.756Z,3.30
2022-10-22T19:36:44.278Z,2.90
2022-10-22T19:39:21.389Z,2.50
2022-10-22T19:41:51.623Z,3.00
2022-10-22T19:44:27.567Z,3.03
2022-10-22T19:46:57.595Z,3.30
2022-10-22T19:49:30.088Z,3.40
2022-10-22T19:52:02.760Z,3.20
2022-10-22T19:54:40.879Z,3.42
2022-10-22T19:57:13.829Z,3.70
2022-10-22T19:59:44.003Z,3.10
2022-10-22T20:02:21.444Z,3.92
2022-10-22T20:04:51.542Z,3.33
2022-10-22T20:07:24.717Z,3.42
2022-10-22T20:09:57.453Z,3.65
2022-10-22T20:12:27.555Z,3.08
2022-10-22T20:14:57.651Z,3.50
2022-10-22T20:17:27.981Z,3.80
2022-10-22T20:19:59.475Z,3.75
2022-10-22T20:22:29.537Z,3.10
2022-10-22T20:25:02.243Z,3.30
2022-10-22T20:27:32.351Z,3.00
2022-10-22T20:30:05.499Z,3.10
2022-10-22T20:32:39.187Z,3.58
2022-10-22T20:35:12.694Z,2.80
2022-10-22T20:37:45.860Z,3.08
2022-10-22T20:40:20.173Z,2.97
2022-10-22T20:42:50.350Z,3.17
2022-10-22T20:45:20.607Z,3.50
2022-10-22T20:47:51.793Z,2.65
2022-10-22T20:50:32.233Z,2.88
2022-10-22T20:53:02.679Z,2.75
2022-10-22T20:55:35.391Z,2.88
2022-10-22T20:58:05.565Z,3.53
2022-10-22T21:00:41.351Z,3.17
2022-10-22T21:03:11.430Z,3.10
2022-10-22T21:05:41.796Z,2.45
2022-10-22T21:08:17.266Z,2.42
2022-10-22T21:10:52.931Z,2.13
2022-10-22T21:13:23.093Z,2.58
2022-10-22T21:15:53.247Z,2.88
2022-10-22T21:18:23.341Z,2.53
2022-10-22T21:20:53.647Z,2.63
2022-10-22T21:23:26.524Z,2.63
2022-10-22T21:26:00.689Z,2.75
2022-10-22T21:28:31.767Z,2.92
2022-10-22T21:31:06.332Z,2.72
2022-10-22T21:33:39.592Z,2.30
2022-10-22T21:36:11.744Z,2.80
2022-10-22T21:38:45.396Z,2.58
2022-10-22T21:41:20.991Z,2.45
2022-10-22T21:43:51.587Z,3.15
2022-10-22T21:46:24.223Z,2.30
2022-10-22T21:49:01.561Z,2.35
2022-10-22T21:51:35.194Z,2.30
2022-10-22T21:54:07.685Z,2.65
2022-10-22T21:56:40.394Z,2.60
2022-10-22T21:59:11.167Z,2.40
2022-10-22T22:01:48.638Z,2.25
2022-10-22T22:04:18.996Z,2.58
2022-10-22T22:06:51.622Z,2.28
2022-10-22T22:09:22.436Z,2.75
2022-10-22T22:11:58.996Z,2.20
2022-10-22T22:14:29.202Z,2.90
2022-10-22T22:16:59.432Z,2.67
2022-10-22T22:19:29.673Z,2.70
2022-10-22T22:22:02.907Z,2.80
2022-10-22T22:24:33.009Z,2.90
2022-10-22T22:27:05.738Z,2.95
2022-10-22T22:29:36.539Z,2.67
2022-10-22T22:32:06.850Z,3.25
2022-10-22T22:34:36.941Z,3.08
2022-10-22T22:37:12.591Z,2.90
2022-10-22T22:39:45.059Z,2.72
2022-10-22T22:42:17.767Z,2.72
2022-10-22T22:44:50.939Z,2.83
2022-10-22T22:47:21.044Z,2.95
2022-10-22T22:49:54.358Z,2.85
2022-10-22T22:52:26.847Z,2.80
2022-10-22T22:54:56.980Z,2.90
2022-10-22T22:57:32.100Z,2.40
2022-10-22T23:00:02.155Z,2.22
2022-10-22T23:02:32.249Z,2.70
2022-10-22T23:05:02.571Z,3.00
2022-10-22T23:07:42.237Z,2.67
2022-10-22T23:10:13.116Z,2.80
2022-10-22T23:12:46.616Z,2.92
2022-10-22T23:15:19.260Z,2.65
2022-10-22T23:17:49.356Z,2.80
2022-10-22T23:20:19.815Z,2.50
2022-10-22T23:22:53.051Z,2.30
2022-10-22T23:25:26.040Z,2.80
2022-10-22T23:28:01.141Z,2.72
2022-10-22T23:30:31.352Z,3.30
2022-10-22T23:33:01.656Z,2.60
2022-10-22T23:35:37.667Z,3.30
2022-10-22T23:38:07.772Z,2.90
2022-10-22T23:40:38.185Z,2.83
2022-10-22T23:43:10.907Z,2.90
2022-10-22T23:45:41.071Z,3.08
2022-10-22T23:48:11.361Z,2.95
2022-10-22T23:50:41.671Z,2.78
2022-10-22T23:53:12.247Z,3.05
2022-10-22T23:55:46.847Z,2.88
2022-10-22T23:58:19.707Z,3.47
